EWG69PA EDDL-LIMC
Flight info
| Callsign | EWG69PA |
|---|---|
| Flight time | 1h 8m |
| Altitude | 23000 |
| Route | KUMIK5Z/05R KUMIK L603 BOMBI/N0440F270 N850 UBENO/N0415F230 N850 RINEX/N0455F330 DCT KRH/N0456F320 DCT NATOR/N0455F330 DCT TRA N850 DEGAD Z424 BASGO/N0462F290 Z424 AKASU/N0393F190 Z424 RIXUV |
| Aircraft | A320/M-SDE3FGHIRWY/LB1 |
Departure
| Time | 2026-05-07 18:31 |
|---|---|
| Airport | Düsseldorf Airport (EDDL) |
Arrival
| Time | 2026-05-07 19:39 |
|---|---|
| Airport | Milan Malpensa International Airport (LIMC) |
| Time | Latitude | Longitude | Altitude | Speed | Heading |
|---|---|---|---|---|---|
| 2026-05-07 18:03 | 51.28068 | 6.76534 | 127 ft | 0 kts | 97° |
| 2026-05-07 18:21 | 51.28068 | 6.76525 | 128 ft | 4 kts | 96° |
| 2026-05-07 18:22 | 51.28069 | 6.76483 | 127 ft | 4 kts | 74° |
| 2026-05-07 18:22 | 51.28064 | 6.76462 | 125 ft | 4 kts | 28° |
| 2026-05-07 18:22 | 51.28061 | 6.76455 | 125 ft | 4 kts | 340° |
| 2026-05-07 18:22 | 51.28081 | 6.76431 | 126 ft | 2 kts | 327° |
| 2026-05-07 18:23 | 51.28082 | 6.76430 | 126 ft | 0 kts | 327° |
| 2026-05-07 18:26 | 51.28083 | 6.76429 | 128 ft | 1 kts | 327° |
| 2026-05-07 18:27 | 51.28096 | 6.76415 | 125 ft | 5 kts | 326° |
| 2026-05-07 18:27 | 51.28127 | 6.76362 | 126 ft | 9 kts | 304° |
| 2026-05-07 18:27 | 51.28173 | 6.76268 | 126 ft | 13 kts | 321° |
| 2026-05-07 18:27 | 51.28186 | 6.76140 | 126 ft | 15 kts | 235° |
| 2026-05-07 18:28 | 51.28116 | 6.75991 | 129 ft | 19 kts | 232° |
| 2026-05-07 18:28 | 51.28028 | 6.75808 | 127 ft | 23 kts | 233° |
| 2026-05-07 18:28 | 51.27935 | 6.75612 | 129 ft | 23 kts | 232° |
| 2026-05-07 18:28 | 51.27850 | 6.75433 | 126 ft | 13 kts | 233° |
| 2026-05-07 18:29 | 51.27856 | 6.75339 | 123 ft | 8 kts | 320° |
| 2026-05-07 18:29 | 51.27886 | 6.75313 | 125 ft | 3 kts | 333° |
| 2026-05-07 18:29 | 51.27901 | 6.75301 | 125 ft | 2 kts | 333° |
| 2026-05-07 18:29 | 51.27920 | 6.75285 | 121 ft | 6 kts | 333° |
| 2026-05-07 18:30 | 51.27978 | 6.75276 | 124 ft | 11 kts | 12° |
| 2026-05-07 18:30 | 51.28025 | 6.75335 | 125 ft | 5 kts | 52° |
| 2026-05-07 18:30 | 51.28043 | 6.75372 | 124 ft | 6 kts | 53° |
| 2026-05-07 18:30 | 51.28186 | 6.75673 | 125 ft | 70 kts | 52° |
| 2026-05-07 18:31 | 51.28615 | 6.76574 | 124 ft | 131 kts | 53° |
| 2026-05-07 18:31 | 51.29249 | 6.77901 | 343 ft | 160 kts | 53° |
| 2026-05-07 18:31 | 51.29936 | 6.79374 | 908 ft | 170 kts | 53° |
| 2026-05-07 18:31 | 51.30657 | 6.80915 | 1589 ft | 176 kts | 52° |
| 2026-05-07 18:32 | 51.31427 | 6.82539 | 2097 ft | 191 kts | 52° |
| 2026-05-07 18:32 | 51.32271 | 6.84309 | 2456 ft | 215 kts | 52° |
| 2026-05-07 18:32 | 51.33224 | 6.86309 | 2944 ft | 235 kts | 52° |
| 2026-05-07 18:32 | 51.34239 | 6.88493 | 3580 ft | 251 kts | 53° |
| 2026-05-07 18:33 | 51.35145 | 6.90931 | 4398 ft | 260 kts | 71° |
| 2026-05-07 18:33 | 51.35261 | 6.93834 | 5312 ft | 266 kts | 101° |
| 2026-05-07 18:33 | 51.34866 | 6.96691 | 6362 ft | 264 kts | 101° |
| 2026-05-07 18:33 | 51.34540 | 6.99631 | 7095 ft | 272 kts | 98° |
| 2026-05-07 18:34 | 51.34248 | 7.02632 | 7826 ft | 280 kts | 98° |
| 2026-05-07 18:34 | 51.33955 | 7.05747 | 8602 ft | 286 kts | 98° |
| 2026-05-07 18:34 | 51.33640 | 7.09014 | 8983 ft | 309 kts | 99° |
| 2026-05-07 18:34 | 51.33293 | 7.12543 | 9073 ft | 335 kts | 99° |
| 2026-05-07 18:35 | 51.32919 | 7.16285 | 9079 ft | 344 kts | 99° |
| 2026-05-07 18:35 | 51.32556 | 7.20077 | 9080 ft | 346 kts | 97° |
| 2026-05-07 18:35 | 51.32251 | 7.23893 | 9080 ft | 346 kts | 96° |
| 2026-05-07 18:35 | 51.31974 | 7.27740 | 9269 ft | 351 kts | 96° |
| 2026-05-07 18:36 | 51.31706 | 7.31631 | 10130 ft | 353 kts | 96° |
| 2026-05-07 18:36 | 51.31341 | 7.35469 | 10890 ft | 356 kts | 104° |
| 2026-05-07 18:36 | 51.30525 | 7.39235 | 11483 ft | 365 kts | 116° |
| 2026-05-07 18:36 | 51.29204 | 7.42727 | 12100 ft | 370 kts | 128° |
| 2026-05-07 18:37 | 51.27553 | 7.45917 | 12791 ft | 374 kts | 131° |
| 2026-05-07 18:37 | 51.25881 | 7.49117 | 13497 ft | 377 kts | 130° |
| 2026-05-07 18:37 | 51.24199 | 7.52358 | 14150 ft | 381 kts | 130° |
| 2026-05-07 18:37 | 51.22501 | 7.55634 | 14765 ft | 384 kts | 130° |
| 2026-05-07 18:38 | 51.20794 | 7.58935 | 15377 ft | 388 kts | 130° |
| 2026-05-07 18:38 | 51.19066 | 7.62271 | 15975 ft | 391 kts | 130° |
| 2026-05-07 18:38 | 51.17319 | 7.65633 | 16585 ft | 395 kts | 132° |
| 2026-05-07 18:38 | 51.15360 | 7.68699 | 17173 ft | 397 kts | 142° |
| 2026-05-07 18:39 | 51.13165 | 7.71404 | 17780 ft | 400 kts | 144° |
| 2026-05-07 18:39 | 51.10946 | 7.74110 | 18379 ft | 404 kts | 144° |
| 2026-05-07 18:39 | 51.08707 | 7.76840 | 18898 ft | 407 kts | 144° |
| 2026-05-07 18:39 | 51.06452 | 7.79593 | 19414 ft | 410 kts | 144° |
| 2026-05-07 18:40 | 51.04212 | 7.82330 | 19924 ft | 413 kts | 144° |
| 2026-05-07 18:40 | 51.01930 | 7.85121 | 20433 ft | 415 kts | 144° |
| 2026-05-07 18:40 | 50.99633 | 7.87927 | 20922 ft | 418 kts | 144° |
| 2026-05-07 18:40 | 50.97318 | 7.90756 | 21405 ft | 421 kts | 144° |
| 2026-05-07 18:41 | 50.94992 | 7.93594 | 21872 ft | 423 kts | 144° |
| 2026-05-07 18:41 | 50.92650 | 7.96445 | 22327 ft | 426 kts | 144° |
| 2026-05-07 18:41 | 50.90287 | 7.99313 | 22780 ft | 429 kts | 144° |
| 2026-05-07 18:41 | 50.87908 | 8.02191 | 23208 ft | 431 kts | 144° |
| 2026-05-07 18:42 | 50.85550 | 8.05081 | 23603 ft | 435 kts | 141° |
| 2026-05-07 18:42 | 50.83380 | 8.08451 | 23934 ft | 439 kts | 132° |
| 2026-05-07 18:42 | 50.81552 | 8.12344 | 24243 ft | 443 kts | 124° |
| 2026-05-07 18:42 | 50.79671 | 8.16190 | 24581 ft | 442 kts | 137° |
| 2026-05-07 18:43 | 50.77224 | 8.19116 | 24894 ft | 441 kts | 153° |
| 2026-05-07 18:43 | 50.74371 | 8.20880 | 25214 ft | 440 kts | 169° |
| 2026-05-07 18:43 | 50.71326 | 8.21443 | 25525 ft | 440 kts | 178° |
| 2026-05-07 18:43 | 50.68263 | 8.21687 | 25832 ft | 442 kts | 179° |
| 2026-05-07 18:44 | 50.65181 | 8.21914 | 26137 ft | 444 kts | 179° |
| 2026-05-07 18:44 | 50.62085 | 8.22134 | 26456 ft | 446 kts | 179° |
| 2026-05-07 18:44 | 50.59010 | 8.22359 | 26739 ft | 448 kts | 179° |
| 2026-05-07 18:44 | 50.55885 | 8.22595 | 27007 ft | 451 kts | 179° |
| 2026-05-07 18:45 | 50.52738 | 8.22837 | 27265 ft | 453 kts | 179° |
| 2026-05-07 18:45 | 50.49573 | 8.23085 | 27532 ft | 455 kts | 179° |
| 2026-05-07 18:45 | 50.46397 | 8.23337 | 27780 ft | 457 kts | 178° |
| 2026-05-07 18:45 | 50.43255 | 8.23588 | 28026 ft | 459 kts | 178° |
| 2026-05-07 18:46 | 50.40053 | 8.23844 | 28274 ft | 460 kts | 178° |
| 2026-05-07 18:46 | 50.36838 | 8.24096 | 28532 ft | 461 kts | 179° |
| 2026-05-07 18:46 | 50.33624 | 8.24344 | 28854 ft | 461 kts | 179° |
| 2026-05-07 18:46 | 50.30462 | 8.24584 | 29166 ft | 460 kts | 179° |
| 2026-05-07 18:47 | 50.27250 | 8.24825 | 29489 ft | 460 kts | 179° |
| 2026-05-07 18:47 | 50.24040 | 8.25071 | 29827 ft | 460 kts | 179° |
| 2026-05-07 18:47 | 50.20849 | 8.25320 | 30142 ft | 459 kts | 179° |
| 2026-05-07 18:47 | 50.17694 | 8.25563 | 30416 ft | 459 kts | 179° |
| 2026-05-07 18:48 | 50.14500 | 8.25805 | 30695 ft | 458 kts | 179° |
| 2026-05-07 18:48 | 50.11311 | 8.26044 | 30974 ft | 458 kts | 179° |
| 2026-05-07 18:48 | 50.08117 | 8.26283 | 31215 ft | 459 kts | 179° |
| 2026-05-07 18:48 | 50.04925 | 8.26525 | 31484 ft | 459 kts | 179° |
| 2026-05-07 18:49 | 50.01730 | 8.26770 | 31766 ft | 459 kts | 179° |
| 2026-05-07 18:49 | 49.98540 | 8.27013 | 32049 ft | 458 kts | 179° |
| 2026-05-07 18:49 | 49.95386 | 8.27252 | 32333 ft | 458 kts | 179° |
| 2026-05-07 18:49 | 49.92198 | 8.27497 | 32620 ft | 457 kts | 179° |
| 2026-05-07 18:50 | 49.89012 | 8.27745 | 32900 ft | 457 kts | 179° |
| 2026-05-07 18:50 | 49.85822 | 8.27994 | 33045 ft | 458 kts | 179° |
| 2026-05-07 18:50 | 49.82625 | 8.28238 | 33064 ft | 460 kts | 179° |
| 2026-05-07 18:51 | 49.76259 | 8.28709 | 33064 ft | 460 kts | 179° |
| 2026-05-07 18:51 | 49.69848 | 8.29187 | 33064 ft | 460 kts | 179° |
| 2026-05-07 18:52 | 49.63445 | 8.29670 | 33067 ft | 461 kts | 179° |
| 2026-05-07 18:52 | 49.57067 | 8.30159 | 33061 ft | 461 kts | 179° |
| 2026-05-07 18:53 | 49.50659 | 8.30635 | 33063 ft | 461 kts | 179° |
| 2026-05-07 18:53 | 49.44240 | 8.31110 | 33052 ft | 461 kts | 179° |
| 2026-05-07 18:54 | 49.37883 | 8.31589 | 33060 ft | 460 kts | 180° |
| 2026-05-07 18:54 | 49.31466 | 8.32070 | 33063 ft | 460 kts | 180° |
| 2026-05-07 18:55 | 49.25103 | 8.32534 | 33052 ft | 460 kts | 180° |
| 2026-05-07 18:55 | 49.18710 | 8.33000 | 33048 ft | 459 kts | 180° |
| 2026-05-07 18:56 | 49.13394 | 8.33384 | 33055 ft | 459 kts | 180° |
| 2026-05-07 18:56 | 49.07002 | 8.33852 | 33060 ft | 459 kts | 180° |
| 2026-05-07 18:57 | 49.00596 | 8.34331 | 33063 ft | 459 kts | 180° |
| 2026-05-07 18:57 | 48.94244 | 8.34795 | 33058 ft | 458 kts | 180° |
| 2026-05-07 18:58 | 48.87862 | 8.35253 | 33063 ft | 458 kts | 180° |
| 2026-05-07 18:58 | 48.81493 | 8.35708 | 33062 ft | 457 kts | 180° |
| 2026-05-07 18:59 | 48.75134 | 8.36176 | 33050 ft | 457 kts | 180° |
| 2026-05-07 18:59 | 48.68818 | 8.36644 | 33063 ft | 456 kts | 180° |
| 2026-05-07 19:00 | 48.62451 | 8.37101 | 33067 ft | 456 kts | 180° |
| 2026-05-07 19:00 | 48.56139 | 8.37553 | 33070 ft | 456 kts | 180° |
| 2026-05-07 19:01 | 48.49798 | 8.37998 | 33075 ft | 456 kts | 180° |
| 2026-05-07 19:01 | 48.43468 | 8.38439 | 33074 ft | 455 kts | 180° |
| 2026-05-07 19:02 | 48.37160 | 8.38892 | 33069 ft | 455 kts | 180° |
| 2026-05-07 19:02 | 48.30825 | 8.39354 | 33057 ft | 455 kts | 180° |
| 2026-05-07 19:03 | 48.24490 | 8.39805 | 33063 ft | 454 kts | 180° |
| 2026-05-07 19:03 | 48.18203 | 8.40248 | 33064 ft | 454 kts | 180° |
| 2026-05-07 19:04 | 48.11883 | 8.40689 | 33049 ft | 454 kts | 180° |
| 2026-05-07 19:04 | 48.05568 | 8.41136 | 33057 ft | 454 kts | 180° |
| 2026-05-07 19:05 | 47.99288 | 8.41577 | 33056 ft | 453 kts | 181° |
| 2026-05-07 19:05 | 47.92965 | 8.42010 | 33059 ft | 453 kts | 181° |
| 2026-05-07 19:06 | 47.86688 | 8.42459 | 33045 ft | 453 kts | 181° |
| 2026-05-07 19:06 | 47.77215 | 8.43131 | 33051 ft | 453 kts | 181° |
| 2026-05-07 19:07 | 47.70960 | 8.43567 | 33048 ft | 453 kts | 181° |
| 2026-05-07 19:07 | 47.64659 | 8.44155 | 33036 ft | 454 kts | 179° |
| 2026-05-07 19:08 | 47.58357 | 8.45141 | 33043 ft | 455 kts | 177° |
| 2026-05-07 19:08 | 47.52043 | 8.46189 | 33048 ft | 455 kts | 178° |
| 2026-05-07 19:09 | 47.45767 | 8.47149 | 33032 ft | 455 kts | 178° |
| 2026-05-07 19:09 | 47.39466 | 8.48055 | 33043 ft | 454 kts | 179° |
| 2026-05-07 19:10 | 47.33191 | 8.48950 | 33050 ft | 455 kts | 179° |
| 2026-05-07 19:10 | 47.26883 | 8.49873 | 33037 ft | 454 kts | 179° |
| 2026-05-07 19:11 | 47.20582 | 8.50808 | 33038 ft | 454 kts | 179° |
| 2026-05-07 19:11 | 47.14287 | 8.51728 | 33048 ft | 454 kts | 179° |
| 2026-05-07 19:12 | 47.08026 | 8.52625 | 33051 ft | 454 kts | 179° |
| 2026-05-07 19:12 | 47.01723 | 8.53524 | 33028 ft | 453 kts | 179° |
| 2026-05-07 19:13 | 46.95435 | 8.54436 | 33052 ft | 453 kts | 179° |
| 2026-05-07 19:13 | 46.89154 | 8.55349 | 33042 ft | 453 kts | 179° |
| 2026-05-07 19:14 | 46.82918 | 8.56249 | 33044 ft | 453 kts | 179° |
| 2026-05-07 19:14 | 46.76644 | 8.57149 | 33040 ft | 452 kts | 180° |
| 2026-05-07 19:15 | 46.70374 | 8.58034 | 33027 ft | 452 kts | 180° |
| 2026-05-07 19:15 | 46.64138 | 8.58915 | 33013 ft | 452 kts | 180° |
| 2026-05-07 19:16 | 46.57906 | 8.59808 | 32989 ft | 452 kts | 180° |
| 2026-05-07 19:16 | 46.54777 | 8.60256 | 32727 ft | 451 kts | 180° |
| 2026-05-07 19:16 | 46.51651 | 8.60702 | 32407 ft | 451 kts | 180° |
| 2026-05-07 19:17 | 46.48518 | 8.61043 | 31302 ft | 452 kts | 185° |
| 2026-05-07 19:17 | 46.45390 | 8.60728 | 30271 ft | 447 kts | 194° |
| 2026-05-07 19:17 | 46.42355 | 8.59712 | 29001 ft | 447 kts | 202° |
| 2026-05-07 19:17 | 46.39506 | 8.58020 | 27903 ft | 439 kts | 210° |
| 2026-05-07 19:18 | 46.36869 | 8.55796 | 26725 ft | 439 kts | 215° |
| 2026-05-07 19:18 | 46.34293 | 8.53483 | 25575 ft | 442 kts | 214° |
| 2026-05-07 19:18 | 46.31675 | 8.51167 | 24759 ft | 439 kts | 212° |
| 2026-05-07 19:18 | 46.28895 | 8.49348 | 23960 ft | 439 kts | 201° |
| 2026-05-07 19:19 | 46.25925 | 8.48259 | 23045 ft | 440 kts | 191° |
| 2026-05-07 19:19 | 46.22873 | 8.47958 | 22254 ft | 438 kts | 181° |
| 2026-05-07 19:19 | 46.19836 | 8.48319 | 21486 ft | 435 kts | 176° |
| 2026-05-07 19:19 | 46.16866 | 8.48756 | 20763 ft | 431 kts | 177° |
| 2026-05-07 19:20 | 46.13886 | 8.49178 | 20045 ft | 428 kts | 177° |
| 2026-05-07 19:20 | 46.10938 | 8.49812 | 19344 ft | 428 kts | 169° |
| 2026-05-07 19:20 | 46.08094 | 8.51095 | 18700 ft | 426 kts | 162° |
| 2026-05-07 19:20 | 46.05365 | 8.52576 | 18521 ft | 411 kts | 161° |
| 2026-05-07 19:21 | 46.02767 | 8.53988 | 18392 ft | 397 kts | 162° |
| 2026-05-07 19:21 | 46.00226 | 8.55362 | 18267 ft | 382 kts | 162° |
| 2026-05-07 19:21 | 45.97774 | 8.56681 | 18135 ft | 369 kts | 162° |
| 2026-05-07 19:21 | 45.95406 | 8.57954 | 17991 ft | 357 kts | 162° |
| 2026-05-07 19:22 | 45.93111 | 8.59188 | 17853 ft | 346 kts | 162° |
| 2026-05-07 19:22 | 45.90899 | 8.60393 | 17685 ft | 336 kts | 159° |
| 2026-05-07 19:22 | 45.88858 | 8.62031 | 17349 ft | 336 kts | 147° |
| 2026-05-07 19:22 | 45.87039 | 8.64103 | 16932 ft | 336 kts | 143° |
| 2026-05-07 19:23 | 45.85233 | 8.66208 | 16595 ft | 333 kts | 143° |
| 2026-05-07 19:23 | 45.83429 | 8.68307 | 16206 ft | 332 kts | 143° |
| 2026-05-07 19:23 | 45.81635 | 8.70388 | 15821 ft | 330 kts | 143° |
| 2026-05-07 19:23 | 45.79870 | 8.72433 | 15463 ft | 328 kts | 143° |
| 2026-05-07 19:24 | 45.78105 | 8.74472 | 14987 ft | 324 kts | 143° |
| 2026-05-07 19:24 | 45.76325 | 8.76436 | 14343 ft | 320 kts | 150° |
| 2026-05-07 19:24 | 45.74392 | 8.77973 | 13715 ft | 316 kts | 154° |
| 2026-05-07 19:24 | 45.72460 | 8.79454 | 13030 ft | 313 kts | 154° |
| 2026-05-07 19:25 | 45.70549 | 8.80924 | 12376 ft | 309 kts | 153° |
| 2026-05-07 19:25 | 45.68674 | 8.82367 | 11828 ft | 304 kts | 153° |
| 2026-05-07 19:25 | 45.66819 | 8.83791 | 11360 ft | 301 kts | 152° |
| 2026-05-07 19:25 | 45.64998 | 8.85193 | 11037 ft | 292 kts | 152° |
| 2026-05-07 19:26 | 45.63261 | 8.86531 | 10883 ft | 283 kts | 152° |
| 2026-05-07 19:26 | 45.61487 | 8.87698 | 10631 ft | 278 kts | 163° |
| 2026-05-07 19:26 | 45.59619 | 8.88278 | 10389 ft | 273 kts | 170° |
| 2026-05-07 19:26 | 45.57758 | 8.88780 | 10119 ft | 270 kts | 169° |
| 2026-05-07 19:27 | 45.55916 | 8.89280 | 9796 ft | 269 kts | 169° |
| 2026-05-07 19:27 | 45.54083 | 8.89779 | 9464 ft | 267 kts | 169° |
| 2026-05-07 19:27 | 45.52267 | 8.90274 | 9116 ft | 265 kts | 169° |
| 2026-05-07 19:27 | 45.50453 | 8.90768 | 8760 ft | 264 kts | 169° |
| 2026-05-07 19:28 | 45.48669 | 8.91254 | 8556 ft | 256 kts | 169° |
| 2026-05-07 19:28 | 45.46939 | 8.91725 | 8300 ft | 251 kts | 169° |
| 2026-05-07 19:28 | 45.45230 | 8.92187 | 7974 ft | 249 kts | 169° |
| 2026-05-07 19:28 | 45.43533 | 8.92647 | 7627 ft | 247 kts | 169° |
| 2026-05-07 19:29 | 45.41876 | 8.93097 | 7306 ft | 246 kts | 169° |
| 2026-05-07 19:29 | 45.40199 | 8.93552 | 6956 ft | 245 kts | 169° |
| 2026-05-07 19:29 | 45.38532 | 8.94008 | 6616 ft | 243 kts | 169° |
| 2026-05-07 19:29 | 45.36874 | 8.94460 | 6285 ft | 241 kts | 169° |
| 2026-05-07 19:30 | 45.35229 | 8.94904 | 5939 ft | 240 kts | 169° |
| 2026-05-07 19:30 | 45.33591 | 8.95343 | 5585 ft | 239 kts | 169° |
| 2026-05-07 19:30 | 45.31965 | 8.95778 | 5246 ft | 237 kts | 171° |
| 2026-05-07 19:30 | 45.30361 | 8.95735 | 5082 ft | 226 kts | 195° |
| 2026-05-07 19:31 | 45.28992 | 8.94783 | 4928 ft | 217 kts | 220° |
| 2026-05-07 19:31 | 45.28063 | 8.93134 | 4657 ft | 214 kts | 245° |
| 2026-05-07 19:31 | 45.27719 | 8.91092 | 4355 ft | 214 kts | 270° |
| 2026-05-07 19:31 | 45.28006 | 8.89047 | 4101 ft | 211 kts | 295° |
| 2026-05-07 19:32 | 45.28850 | 8.87384 | 4037 ft | 211 kts | 319° |
| 2026-05-07 19:32 | 45.30067 | 8.86201 | 4056 ft | 213 kts | 328° |
| 2026-05-07 19:32 | 45.31321 | 8.85075 | 4055 ft | 213 kts | 328° |
| 2026-05-07 19:32 | 45.32573 | 8.83947 | 4056 ft | 213 kts | 328° |
| 2026-05-07 19:33 | 45.33831 | 8.82813 | 4056 ft | 213 kts | 328° |
| 2026-05-07 19:33 | 45.35088 | 8.81681 | 4056 ft | 210 kts | 328° |
| 2026-05-07 19:33 | 45.36365 | 8.80775 | 4056 ft | 203 kts | 343° |
| 2026-05-07 19:33 | 45.37723 | 8.80310 | 4061 ft | 203 kts | 348° |
| 2026-05-07 19:34 | 45.39114 | 8.79922 | 4061 ft | 203 kts | 349° |
| 2026-05-07 19:34 | 45.40499 | 8.79543 | 4059 ft | 203 kts | 349° |
| 2026-05-07 19:34 | 45.41886 | 8.79164 | 4058 ft | 203 kts | 349° |
| 2026-05-07 19:34 | 45.43272 | 8.78784 | 4094 ft | 202 kts | 349° |
| 2026-05-07 19:35 | 45.44658 | 8.78404 | 3978 ft | 201 kts | 349° |
| 2026-05-07 19:35 | 45.45988 | 8.78039 | 3773 ft | 192 kts | 348° |
| 2026-05-07 19:35 | 45.47267 | 8.77689 | 3542 ft | 184 kts | 349° |
| 2026-05-07 19:35 | 45.48518 | 8.77345 | 3305 ft | 179 kts | 349° |
| 2026-05-07 19:36 | 45.49722 | 8.77014 | 3072 ft | 174 kts | 349° |
| 2026-05-07 19:36 | 45.50903 | 8.76690 | 2844 ft | 172 kts | 349° |
| 2026-05-07 19:36 | 45.52074 | 8.76367 | 2612 ft | 169 kts | 349° |
| 2026-05-07 19:36 | 45.53159 | 8.76069 | 2414 ft | 154 kts | 349° |
| 2026-05-07 19:37 | 45.54192 | 8.75785 | 2208 ft | 149 kts | 349° |
| 2026-05-07 19:37 | 45.55204 | 8.75506 | 2010 ft | 147 kts | 349° |
| 2026-05-07 19:37 | 45.56209 | 8.75231 | 1799 ft | 147 kts | 349° |
| 2026-05-07 19:37 | 45.57211 | 8.74962 | 1608 ft | 145 kts | 349° |
| 2026-05-07 19:38 | 45.58194 | 8.74696 | 1419 ft | 142 kts | 349° |
| 2026-05-07 19:38 | 45.59158 | 8.74417 | 1249 ft | 141 kts | 349° |
| 2026-05-07 19:38 | 45.60131 | 8.74159 | 1077 ft | 140 kts | 349° |
| 2026-05-07 19:38 | 45.61079 | 8.73888 | 935 ft | 137 kts | 348° |
| 2026-05-07 19:39 | 45.62012 | 8.73621 | 780 ft | 136 kts | 349° |
| 2026-05-07 19:39 | 45.62597 | 8.73460 | 745 ft | 119 kts | 350° |
| 2026-05-07 19:39 | 45.63245 | 8.73287 | 745 ft | 70 kts | 349° |
| 2026-05-07 19:39 | 45.63567 | 8.73190 | 747 ft | 33 kts | 342° |
| 2026-05-07 19:40 | 45.63767 | 8.73000 | 750 ft | 20 kts | 312° |
| 2026-05-07 19:40 | 45.63824 | 8.72893 | 748 ft | 20 kts | 306° |
| 2026-05-07 19:40 | 45.63904 | 8.72727 | 750 ft | 21 kts | 303° |
| 2026-05-07 19:40 | 45.63954 | 8.72571 | 750 ft | 18 kts | 274° |
| 2026-05-07 19:41 | 45.63934 | 8.72398 | 751 ft | 17 kts | 259° |
| 2026-05-07 19:41 | 45.63921 | 8.72294 | 750 ft | 4 kts | 261° |
| 2026-05-07 19:41 | 45.63919 | 8.72252 | 751 ft | 3 kts | 266° |
| 2026-05-07 19:41 | 45.63919 | 8.72250 | 751 ft | 0 kts | 266° |
| 2026-05-07 19:42 | 45.63918 | 8.72247 | 751 ft | 2 kts | 266° |
| 2026-05-07 19:43 | 45.63917 | 8.72216 | 750 ft | 0 kts | 266° |
| 2026-05-07 19:43 | 45.63916 | 8.72181 | 749 ft | 10 kts | 267° |
| 2026-05-07 19:43 | 45.63910 | 8.72013 | 746 ft | 21 kts | 265° |
| 2026-05-07 19:43 | 45.63862 | 8.71848 | 751 ft | 18 kts | 217° |
| 2026-05-07 19:44 | 45.63741 | 8.71841 | 749 ft | 19 kts | 169° |
| 2026-05-07 19:44 | 45.63607 | 8.71878 | 750 ft | 20 kts | 169° |
| 2026-05-07 19:44 | 45.63461 | 8.71918 | 748 ft | 22 kts | 169° |
| 2026-05-07 19:44 | 45.63304 | 8.71961 | 750 ft | 23 kts | 169° |
| 2026-05-07 19:45 | 45.63142 | 8.72005 | 752 ft | 24 kts | 169° |
| 2026-05-07 19:45 | 45.62978 | 8.72051 | 750 ft | 25 kts | 169° |
| 2026-05-07 19:45 | 45.62806 | 8.72099 | 747 ft | 26 kts | 168° |
| 2026-05-07 19:45 | 45.62687 | 8.72082 | 750 ft | 17 kts | 238° |
| 2026-05-07 19:46 | 45.62661 | 8.71915 | 751 ft | 17 kts | 259° |
| 2026-05-07 19:46 | 45.62640 | 8.71755 | 751 ft | 14 kts | 259° |
| 2026-05-07 19:46 | 45.62622 | 8.71620 | 751 ft | 14 kts | 259° |
| 2026-05-07 19:46 | 45.62572 | 8.71596 | 752 ft | 9 kts | 169° |
| 2026-05-07 19:47 | 45.62541 | 8.71605 | 753 ft | 0 kts | 168° |